Terminal Aerodrome Forecast
Issued by NWS

Home | Current Version | Previous Version | Text Only | Print | Product List | Glossary On
Versions: 1 2 3 4 5 6 7 8 9 10 11 12
000
FTUS41 KBTV 250536
TAFPBG
TAF
KPBG 250536Z 2506/2606 VRB03KT P6SM SCT250
     FM251200 16006KT P6SM SCT200
     FM251800 17008G18KT P6SM VCSH BKN045
     FM260000 22005KT P6SM SCT045=

USA.gov is the U.S. government's official web portal to all federal, state and local government web resources and services.